Picayune, MS (39466)

03:52 PM CST die 16o January, anno 2017 (GMT -0600)
HAWL | | Change Station

Elev 101 ft 30.57 °N, 89.65 °W | Updated 4 minutes ago

Aequaliter Nubila
Aequaliter Nubila
74.3 °F
Feels Like 75 °F
N
1.7
Ventus Variabilis Ventus from Magis Aquilo quam Zephyrus

Hodie
High -- | Low -- °F
--% Chance of Precip.
Yesterday
High -- | Low -- °F
Precip. -- in
Pressio 30.11 in
Visibilitas 10.0 milia passuum
Clouds Nubes Dispersae 2300 ft
Plerumque Nubila 4600 ft
Aequaliter Nubila 9000 ft
Index Caloris 75 °F
Frigus in quo Ros apparet 67 °F
Umor 78%
Rainfall 0.00 in
Snow Depth Not available.
6:56 AM 5:21 PM
Waning Gibbous, 78% visible
SPECI KASD 162146Z AUTO 15011G15KT 10SM SCT023 BKN046 OVC090 23/19 A3011 RMK AO2 T02330189
Pressio 30.11 in
Visibilitas 10.0 milia passuum
Clouds Nubes Dispersae 2300 ft
Plerumque Nubila 4600 ft
Aequaliter Nubila 9000 ft
Index Caloris 75 °F
Frigus in quo Ros apparet 67 °F
Umor 78%
Rainfall 0.00 in
Snow Depth Not available.
6:56 AM 5:21 PM
Waning Gibbous, 78% visible
SPECI KASD 162146Z AUTO 15011G15KT 10SM SCT023 BKN046 OVC090 23/19 A3011 RMK AO2 T02330189

Get Your Daily Forecast Email!

Thanks for signing up!

Be on the lookout for a verification email in your inbox.

You'll start receiving the daily forecast at 8 AM.

×

10-Day Weather Forecast

Almanac

Astronomy

Jan. 16, 2017 Rise Set
Actual Time
Civil Twilight
Nautical Twilight
Astronomical Twilight
Moon
Length Of Visible Light
Length of Day
Tomorrow will be .
, % of the Moon is Illuminated

Today's Extremes

State Highs State Lows

Community

WunderPhotos

Upload Photos

1,962,540 photos uploaded!

WunderBlog® & News

Nearby

Air Quality

  Air Quality AQ Index Pollutant
Not available.

Snow Depth

Station Depth Elevation

Earthquake Activity

City Distance Mag. Time & Date
Minimum magnitude displayed is 2.5.

Coastal Water Temperatures

Locus Calor

Stations

Nearby Weather Stations

Station Location Temp Frigus Venti Frigus in quo Ros apparet Umor Ventus Precip. Elev Renovata Type
                   

Watches & Warnings

There are currently no watches in effect.